Time;durP1;ratioP1;P1;durP2;ratioP2;P2;SDS_P1;SDS_P2;PMS_P1;PMS_P2;Temp;Humidity;BMP_temperature;BMP_pressure;BME280_temperature;BME280_humidity;BME280_pressure;Samples;Min_cycle;Max_cycle;Signal;HPM_P1;HPM_P2
2022/11/12 00:00:40;;;;;;;23.67;17.25;;;10.90;47.80;;;;;;5052263;28;20416;-44
2022/11/12 00:03:06;;;;;;;27.83;18.20;;;10.90;47.80;;;;;;5052612;28;20179;-47
2022/11/12 00:05:33;;;;;;;25.90;19.60;;;10.90;47.80;;;;;;5050699;28;20448;-44
2022/11/12 00:07:59;;;;;;;30.27;19.42;;;10.90;47.80;;;;;;5050775;28;20180;-44
2022/11/12 00:10:25;;;;;;;26.52;18.02;;;10.90;47.90;;;;;;5052224;28;20220;-46
2022/11/12 00:12:51;;;;;;;30.27;19.80;;;10.90;48.00;;;;;;5052147;28;20684;-44
2022/11/12 00:15:17;;;;;;;27.25;18.40;;;10.90;47.90;;;;;;5052410;28;20287;-43
2022/11/12 00:17:43;;;;;;;35.75;18.45;;;10.90;47.80;;;;;;5051585;28;20181;-44
2022/11/12 00:20:09;;;;;;;29.37;18.60;;;10.90;48.00;;;;;;5052143;28;20191;-44
2022/11/12 00:22:35;;;;;;;30.65;17.80;;;10.90;47.80;;;;;;5052110;28;20183;-44
2022/11/12 00:25:01;;;;;;;26.67;16.40;;;10.90;47.70;;;;;;5052316;28;20192;-44
2022/11/12 00:27:27;;;;;;;25.30;17.27;;;10.90;47.60;;;;;;5051424;28;20633;-44
2022/11/12 00:29:53;;;;;;;28.67;18.93;;;10.90;47.60;;;;;;5052095;28;20181;-44
2022/11/12 00:32:19;;;;;;;23.57;15.43;;;10.90;47.60;;;;;;5052165;28;20212;-46
2022/11/12 00:34:45;;;;;;;24.05;16.45;;;10.80;47.40;;;;;;5051954;28;20210;-46
2022/11/12 00:37:11;;;;;;;26.90;17.33;;;10.80;47.60;;;;;;5051375;28;20248;-43
2022/11/12 00:39:37;;;;;;;22.90;15.93;;;10.70;47.80;;;;;;5052051;28;20404;-43
2022/11/12 00:42:02;;;;;;;25.13;16.73;;;10.70;47.60;;;;;;5051726;28;20189;-46
2022/11/12 00:44:28;;;;;;;29.30;18.53;;;10.70;47.60;;;;;;5051970;28;20179;-45
2022/11/12 00:46:55;;;;;;;27.97;16.43;;;10.70;47.60;;;;;;5051579;28;20449;-43
2022/11/12 00:49:21;;;;;;;25.35;16.20;;;10.70;47.70;;;;;;5051828;28;20173;-45
2022/11/12 00:51:47;;;;;;;30.40;19.52;;;10.70;47.80;;;;;;5051679;28;20204;-44
2022/11/12 00:54:13;;;;;;;22.88;16.23;;;10.70;47.80;;;;;;5051819;28;20633;-45
2022/11/12 00:56:39;;;;;;;26.63;17.80;;;10.70;47.80;;;;;;5051192;28;20184;-45
2022/11/12 00:59:05;;;;;;;32.87;17.70;;;10.70;48.00;;;;;;5051884;28;20173;-44
2022/11/12 01:01:30;;;;;;;28.43;19.27;;;10.60;47.70;;;;;;5055632;28;20225;-44
2022/11/12 01:03:58;;;;;;;31.77;21.17;;;10.60;47.70;;;;;;5055831;28;20412;-43
2022/11/12 01:06:24;;;;;;;38.40;22.77;;;10.60;47.80;;;;;;5055036;28;20196;-44
2022/11/12 01:08:50;;;;;;;27.77;18.30;;;10.60;47.70;;;;;;5055998;28;20182;-44
2022/11/12 01:11:22;;;;;;;27.73;17.75;;;10.60;47.80;;;;;;5055444;28;20239;-45
2022/11/12 01:13:54;;;;;;;26.48;17.65;;;10.60;47.70;;;;;;5055488;28;20191;-45
2022/11/12 01:16:22;;;;;;;25.92;16.67;;;10.60;47.70;;;;;;5054896;28;20314;-44
2022/11/12 01:18:53;;;;;;;25.95;16.27;;;10.60;48.00;;;;;;5054137;28;20263;-44
2022/11/12 01:21:23;;;;;;;26.70;15.90;;;10.60;47.90;;;;;;5055303;28;20193;-43
2022/11/12 01:23:49;;;;;;;21.35;14.73;;;10.60;48.10;;;;;;5054089;28;20177;-43
2022/11/12 01:26:16;;;;;;;24.57;15.67;;;10.50;47.90;;;;;;5054847;28;20178;-43
2022/11/12 01:28:43;;;;;;;22.25;15.18;;;10.60;47.80;;;;;;5055258;28;20414;-44
2022/11/12 01:31:13;;;;;;;21.38;13.55;;;10.50;47.80;;;;;;5055286;28;20661;-44
2022/11/12 01:33:41;;;;;;;25.35;15.52;;;10.50;47.70;;;;;;5055197;28;20180;-44
2022/11/12 01:36:07;;;;;;;22.52;14.20;;;10.50;47.60;;;;;;5054803;28;20184;-44
2022/11/12 01:38:38;;;;;;;25.42;17.02;;;10.40;47.60;;;;;;5055535;28;20177;-45
2022/11/12 01:41:05;;;;;;;24.27;13.60;;;10.40;47.50;;;;;;5056060;28;20200;-43
2022/11/12 01:43:31;;;;;;;24.48;14.60;;;10.40;47.80;;;;;;5063844;28;20184;-44
2022/11/12 01:45:58;;;;;;;20.83;14.17;;;10.30;47.90;;;;;;5062284;28;20180;-45
2022/11/12 01:48:36;;;;;;;23.25;14.02;;;10.40;47.80;;;;;;5064480;28;20404;-44
2022/11/12 01:51:03;;;;;;;22.23;13.65;;;10.40;47.80;;;;;;5064536;28;20201;-43
2022/11/12 01:53:32;;;;;;;26.88;15.07;;;10.40;47.80;;;;;;5064269;28;20168;-43
2022/11/12 01:55:59;;;;;;;20.05;13.23;;;10.40;47.70;;;;;;5056289;28;20185;-44
2022/11/12 01:58:29;;;;;;;21.92;12.48;;;10.40;47.70;;;;;;5053506;28;20250;-43
2022/11/12 02:00:55;;;;;;;20.80;13.27;;;10.40;47.70;;;;;;5055352;28;20196;-44
2022/11/12 02:03:23;;;;;;;20.35;13.52;;;10.40;47.80;;;;;;5054649;28;20184;-46
2022/11/12 02:05:55;;;;;;;18.20;12.55;;;10.40;47.80;;;;;;5053952;28;20181;-44
2022/11/12 02:08:23;;;;;;;18.05;11.60;;;10.40;47.80;;;;;;5054701;28;20223;-44
2022/11/12 02:10:50;;;;;;;21.33;13.88;;;10.30;47.80;;;;;;5053908;28;20213;-45
2022/11/12 02:16:03;;;;;;;17.33;12.95;;;10.30;47.70;;;;;;5054176;28;20169;-44
2022/11/12 02:18:29;;;;;;;18.63;12.38;;;10.30;47.60;;;;;;5054362;28;20208;-44
2022/11/12 02:20:57;;;;;;;17.23;12.77;;;10.30;47.50;;;;;;5054257;28;20205;-44
2022/11/12 02:23:23;;;;;;;20.75;14.43;;;10.30;47.60;;;;;;5054451;28;20432;-45
2022/11/12 02:25:49;;;;;;;21.63;14.00;;;10.30;47.60;;;;;;5053926;28;20204;-44
2022/11/12 02:28:16;;;;;;;18.53;12.67;;;10.30;47.50;;;;;;5054326;28;20464;-44
2022/11/12 02:30:45;;;;;;;24.30;13.73;;;10.30;47.50;;;;;;5054010;28;20652;-43
2022/11/12 02:33:10;;;;;;;16.48;11.20;;;10.30;47.60;;;;;;5053978;28;20213;-44
2022/11/12 02:35:36;;;;;;;20.90;12.63;;;10.20;47.50;;;;;;5053420;28;20176;-44
2022/11/12 02:38:03;;;;;;;19.00;13.07;;;10.20;47.50;;;;;;5054071;28;20191;-46
2022/11/12 02:40:29;;;;;;;20.13;13.23;;;10.20;47.40;;;;;;5053907;28;20421;-44
2022/11/12 02:42:55;;;;;;;16.97;12.07;;;10.20;47.40;;;;;;5053822;28;20526;-43
2022/11/12 02:45:21;;;;;;;22.92;13.50;;;10.10;48.10;;;;;;5052543;28;20173;-44
2022/11/12 02:47:47;;;;;;;18.03;11.77;;;10.10;47.30;;;;;;5053471;28;20181;-43
2022/11/12 02:50:13;;;;;;;16.37;11.87;;;10.10;47.60;;;;;;5053548;28;20962;-44
2022/11/12 02:52:38;;;;;;;19.27;12.30;;;10.10;47.70;;;;;;5053677;28;20966;-44
2022/11/12 02:55:06;;;;;;;16.43;10.80;;;10.10;47.70;;;;;;5053745;28;20185;-45
2022/11/12 02:57:32;;;;;;;17.77;12.07;;;10.10;47.50;;;;;;5053589;28;20396;-44
2022/11/12 02:59:57;;;;;;;20.57;13.40;;;10.00;47.40;;;;;;5054235;28;20196;-43
2022/11/12 03:02:23;;;;;;;19.80;12.53;;;10.00;47.30;;;;;;5053854;28;20173;-43
2022/11/12 03:04:49;;;;;;;20.00;12.43;;;10.00;47.40;;;;;;5053469;28;20169;-43
2022/11/12 03:07:15;;;;;;;19.80;13.23;;;10.00;47.40;;;;;;5052784;28;20192;-44
2022/11/12 03:09:40;;;;;;;17.37;11.23;;;10.00;47.30;;;;;;5053305;28;20176;-47
2022/11/12 03:12:06;;;;;;;18.20;11.33;;;9.90;47.60;;;;;;5052935;28;20215;-46
2022/11/12 03:14:32;;;;;;;16.33;11.10;;;9.90;48.20;;;;;;5053227;28;20638;-45
2022/11/12 03:16:57;;;;;;;15.80;11.43;;;10.00;47.60;;;;;;5052809;28;20412;-45
2022/11/12 03:19:23;;;;;;;15.87;12.13;;;10.00;47.60;;;;;;5053138;28;20633;-45
2022/11/12 03:21:49;;;;;;;16.83;11.40;;;10.00;48.20;;;;;;5052609;28;20185;-45
2022/11/12 03:24:15;;;;;;;17.33;12.70;;;9.90;47.40;;;;;;5052817;28;20544;-46
2022/11/12 03:26:40;;;;;;;22.23;12.47;;;9.90;47.50;;;;;;5051104;28;20597;-46
2022/11/12 03:29:06;;;;;;;15.93;11.23;;;9.90;47.60;;;;;;5053221;28;20411;-46
2022/11/12 03:31:32;;;;;;;18.20;12.33;;;9.90;47.50;;;;;;5052796;28;20227;-46
2022/11/12 03:33:58;;;;;;;20.90;12.40;;;9.90;47.30;;;;;;5053166;28;20293;-45
2022/11/12 03:36:23;;;;;;;17.07;12.70;;;9.80;47.20;;;;;;5052248;28;20662;-43
2022/11/12 03:38:49;;;;;;;15.07;11.50;;;9.80;47.20;;;;;;5051455;28;20169;-46
2022/11/12 03:41:15;;;;;;;16.47;11.17;;;9.80;47.20;;;;;;5052590;28;20190;-46
2022/11/12 03:43:40;;;;;;;17.77;11.37;;;9.70;47.20;;;;;;5052681;28;20165;-45
2022/11/12 03:46:06;;;;;;;15.63;10.00;;;9.70;47.20;;;;;;5052253;28;20173;-43
2022/11/12 03:48:32;;;;;;;12.80;10.53;;;9.70;47.40;;;;;;5052644;28;20171;-44
2022/11/12 03:50:58;;;;;;;19.87;11.17;;;9.70;47.30;;;;;;5052447;28;20246;-43
2022/11/12 03:53:25;;;;;;;16.17;11.10;;;9.70;47.20;;;;;;5052745;28;20207;-44
2022/11/12 03:55:51;;;;;;;14.70;10.85;;;9.70;47.10;;;;;;5051864;28;20633;-44
2022/11/12 03:58:16;;;;;;;15.30;9.40;;;9.60;47.10;;;;;;5052412;28;20218;-43
2022/11/12 04:00:42;;;;;;;12.07;8.97;;;9.60;47.00;;;;;;5052260;28;20243;-45
2022/11/12 04:03:08;;;;;;;15.97;10.83;;;9.60;46.90;;;;;;5052352;28;20180;-46
2022/11/12 04:08:36;;;;;;;15.85;10.90;;;9.50;46.90;;;;;;5052308;28;20424;-43
2022/11/12 04:11:08;;;;;;;15.32;9.50;;;9.50;46.80;;;;;;5052229;28;20653;-46
2022/11/12 04:13:34;;;;;;;13.43;9.68;;;9.40;46.80;;;;;;5051112;28;20187;-46
2022/11/12 04:21:53;;;;;;;13.45;9.65;;;9.20;46.70;;;;;;5052441;28;20206;-44
2022/11/12 04:27:20;;;;;;;12.32;10.80;;;9.20;46.70;;;;;;5051717;28;20530;-44
2022/11/12 04:32:33;;;;;;;14.10;10.45;;;9.10;46.90;;;;;;5052078;28;20208;-46
2022/11/12 04:34:59;;;;;;;14.60;8.95;;;9.20;47.00;;;;;;5057259;28;20176;-44
2022/11/12 04:37:26;;;;;;;13.88;10.50;;;9.10;46.90;;;;;;5057963;28;20179;-43
2022/11/12 04:39:52;;;;;;;12.02;9.60;;;9.10;46.90;;;;;;5058535;28;20319;-44
2022/11/12 04:45:12;;;;;;;14.90;10.75;;;9.10;46.70;;;;;;5058822;28;20209;-43
2022/11/12 04:47:40;;;;;;;14.13;10.32;;;9.10;46.70;;;;;;5058081;28;20165;-43
2022/11/12 04:50:12;;;;;;;13.40;9.77;;;9.10;46.70;;;;;;5058848;28;20633;-44
2022/11/12 04:52:38;;;;;;;13.38;9.45;;;9.10;46.70;;;;;;5063225;28;20199;-43
2022/11/12 04:55:04;;;;;;;14.60;9.20;;;9.10;46.70;;;;;;5066352;28;20204;-43
2022/11/12 04:57:30;;;;;;;18.38;10.07;;;9.10;46.60;;;;;;5066611;28;20175;-44
2022/11/12 04:59:56;;;;;;;15.83;10.30;;;9.10;46.60;;;;;;5067016;28;20244;-43
2022/11/12 05:02:22;;;;;;;11.97;9.87;;;9.00;46.50;;;;;;5067354;28;20578;-43
2022/11/12 05:04:47;;;;;;;15.70;11.67;;;9.00;46.50;;;;;;5068439;28;20173;-43
2022/11/12 05:07:13;;;;;;;14.50;10.13;;;9.00;46.40;;;;;;5067951;28;20777;-44
2022/11/12 05:09:40;;;;;;;14.43;9.82;;;9.00;46.40;;;;;;5067023;28;20166;-44
2022/11/12 05:12:06;;;;;;;16.88;9.85;;;8.90;46.40;;;;;;5059203;28;20220;-44
2022/11/12 05:14:32;;;;;;;16.70;9.25;;;8.90;46.30;;;;;;5059548;28;20171;-43
2022/11/12 05:16:58;;;;;;;13.63;10.17;;;8.90;46.90;;;;;;5057669;28;20207;-43
2022/11/12 05:19:23;;;;;;;13.40;9.37;;;8.90;46.20;;;;;;5060120;28;20575;-44
2022/11/12 05:22:04;;;;;;;14.53;8.67;;;8.80;46.00;;;;;;5060457;28;20279;-44
2022/11/12 05:24:36;;;;;;;13.40;10.50;;;8.80;46.10;;;;;;5070872;28;20176;-46
2022/11/12 05:27:04;;;;;;;9.65;7.85;;;8.80;46.20;;;;;;5071537;28;20183;-47
2022/11/12 05:29:29;;;;;;;16.23;11.68;;;8.70;46.20;;;;;;5073187;28;20200;-42
2022/11/12 05:31:56;;;;;;;16.47;9.57;;;8.70;46.10;;;;;;5071510;28;20272;-45
2022/11/12 05:34:21;;;;;;;13.13;9.02;;;7.30;45.40;;;;;;5072724;28;20180;-47
2022/11/12 05:36:47;;;;;;;13.60;8.73;;;8.70;46.00;;;;;;5067200;28;20180;-47
2022/11/12 05:39:13;;;;;;;14.07;9.63;;;8.60;46.00;;;;;;5070063;28;20407;-45
2022/11/12 05:41:38;;;;;;;11.83;8.53;;;9.70;46.70;;;;;;5072198;28;20200;-45
2022/11/12 05:44:04;;;;;;;13.90;9.20;;;8.60;46.10;;;;;;5072840;28;20164;-44
2022/11/12 05:46:30;;;;;;;12.77;8.80;;;8.50;46.20;;;;;;5068131;28;20175;-45
2022/11/12 05:48:56;;;;;;;11.77;8.43;;;8.50;46.10;;;;;;5068278;28;20469;-45
2022/11/12 05:51:22;;;;;;;16.90;8.90;;;8.50;46.40;;;;;;5068637;28;20203;-44
2022/11/12 05:53:47;;;;;;;14.63;9.33;;;8.50;46.60;;;;;;5067835;28;20419;-45
2022/11/12 05:56:13;;;;;;;14.30;9.03;;;8.50;47.00;;;;;;5066879;28;20179;-47
2022/11/12 05:58:39;;;;;;;20.43;10.60;;;8.50;47.20;;;;;;5067853;28;20173;-45
2022/11/12 06:01:05;;;;;;;13.57;9.50;;;8.60;47.30;;;;;;5066212;28;20189;-46
2022/11/12 06:03:30;;;;;;;16.53;10.77;;;8.60;47.40;;;;;;5066961;28;20544;-44
2022/11/12 06:05:56;;;;;;;14.57;9.80;;;8.70;48.20;;;;;;5067380;28;20441;-44
2022/11/12 06:08:22;;;;;;;15.00;10.10;;;8.70;47.50;;;;;;5067287;28;20179;-46
2022/11/12 06:10:49;;;;;;;17.73;10.23;;;8.80;47.50;;;;;;5067230;28;20214;-46
2022/11/12 06:13:15;;;;;;;14.50;10.55;;;8.80;47.60;;;;;;5066542;28;20204;-46
2022/11/12 06:15:41;;;;;;;13.60;9.17;;;8.80;47.50;;;;;;5066389;28;20246;-45
2022/11/12 06:18:07;;;;;;;18.10;10.20;;;8.90;47.80;;;;;;5066821;28;20401;-44
2022/11/12 06:20:33;;;;;;;17.63;11.80;;;8.90;47.80;;;;;;5066933;28;20187;-46
2022/11/12 06:22:58;;;;;;;21.95;11.20;;;8.90;47.80;;;;;;5067006;28;20178;-46
2022/11/12 06:25:24;;;;;;;19.10;11.37;;;9.00;47.80;;;;;;5066528;28;20229;-47
2022/11/12 06:27:50;;;;;;;19.30;10.80;;;9.10;47.90;;;;;;5066659;28;20169;-46
2022/11/12 06:30:16;;;;;;;18.67;11.43;;;9.10;48.00;;;;;;5067681;28;20218;-45
2022/11/12 06:32:45;;;;;;;17.10;12.63;;;9.10;48.00;;;;;;5066927;28;20197;-45
2022/11/12 06:35:11;;;;;;;17.48;11.57;;;9.10;47.90;;;;;;5066519;28;20422;-42
2022/11/12 06:37:37;;;;;;;24.03;12.37;;;9.20;47.90;;;;;;5065450;28;20215;-43
2022/11/12 06:40:03;;;;;;;26.97;12.17;;;9.20;47.90;;;;;;5067267;28;20448;-45
2022/11/12 06:42:29;;;;;;;29.35;12.55;;;9.20;48.00;;;;;;5066680;28;20634;-45
2022/11/12 06:44:54;;;;;;;19.17;13.17;;;9.30;48.10;;;;;;5066675;28;20177;-46
2022/11/12 06:47:20;;;;;;;25.20;13.70;;;9.30;48.20;;;;;;5065045;28;20177;-46
2022/11/12 06:49:46;;;;;;;25.00;12.97;;;9.30;48.40;;;;;;5065523;28;20182;-46
2022/11/12 06:52:12;;;;;;;24.70;12.00;;;9.30;48.40;;;;;;5066618;28;20236;-45
2022/11/12 06:54:37;;;;;;;23.27;13.60;;;9.30;48.60;;;;;;5065794;28;20175;-45
2022/11/12 06:57:03;;;;;;;28.33;13.20;;;9.30;48.60;;;;;;5063638;28;20174;-47
2022/11/12 06:59:29;;;;;;;28.37;14.70;;;9.40;48.60;;;;;;5066582;28;20210;-46
2022/11/12 07:01:54;;;;;;;25.67;13.47;;;9.50;48.60;;;;;;5065980;28;20211;-46
2022/11/12 07:04:20;;;;;;;36.67;13.70;;;9.50;48.70;;;;;;5066459;28;20182;-45
2022/11/12 07:06:46;;;;;;;30.93;13.77;;;9.50;48.90;;;;;;5066104;28;20273;-45
2022/11/12 07:09:12;;;;;;;26.10;14.33;;;9.50;48.90;;;;;;5066644;28;20178;-45
2022/11/12 07:11:37;;;;;;;39.67;13.10;;;9.60;49.00;;;;;;5066644;28;20231;-44
2022/11/12 07:14:06;;;;;;;28.93;13.90;;;9.50;49.40;;;;;;5066111;28;20178;-46
2022/11/12 07:16:32;;;;;;;24.73;14.32;;;9.50;49.40;;;;;;5065500;28;20171;-45
2022/11/12 07:18:58;;;;;;;20.63;14.10;;;9.50;49.60;;;;;;5065931;28;20310;-44
2022/11/12 07:21:24;;;;;;;21.77;12.43;;;9.50;49.70;;;;;;5065509;28;20238;-46
2022/11/12 07:23:49;;;;;;;23.27;13.23;;;9.50;49.70;;;;;;5064711;28;20221;-45
2022/11/12 07:26:20;;;;;;;20.20;12.03;;;9.50;49.70;;;;;;5064423;28;20417;-46
2022/11/12 07:28:49;;;;;;;21.02;13.20;;;9.50;49.80;;;;;;5065690;28;20602;-45
2022/11/12 07:31:16;;;;;;;20.52;12.45;;;9.60;49.70;;;;;;5065729;28;20193;-45
2022/11/12 07:33:43;;;;;;;24.83;12.82;;;9.60;49.70;;;;;;5066736;28;20183;-46
2022/11/12 07:36:11;;;;;;;15.18;10.85;;;9.70;49.80;;;;;;5066377;28;20204;-46
2022/11/12 07:38:38;;;;;;;20.80;11.65;;;9.70;49.70;;;;;;5066811;28;20191;-44
2022/11/12 07:41:15;;;;;;;21.23;12.40;;;9.80;49.60;;;;;;5066921;28;20198;-45
2022/11/12 07:43:43;;;;;;;18.77;12.73;;;9.80;49.50;;;;;;5068869;28;20180;-45
2022/11/12 07:46:20;;;;;;;21.13;11.73;;;9.90;49.60;;;;;;5067270;28;20173;-45
2022/11/12 07:48:46;;;;;;;17.83;14.20;;;9.90;49.50;;;;;;5068102;28;20165;-43
2022/11/12 07:51:23;;;;;;;19.58;12.20;;;10.00;49.50;;;;;;5068058;28;20270;-45
2022/11/12 07:53:51;;;;;;;23.20;12.85;;;10.00;49.50;;;;;;5068533;28;20723;-45
2022/11/12 07:56:22;;;;;;;19.15;13.05;;;10.00;49.50;;;;;;5068248;28;20612;-44
2022/11/12 07:58:49;;;;;;;18.13;11.20;;;10.00;49.60;;;;;;5069107;28;20164;-45
2022/11/12 08:01:40;;;;;;;19.90;13.00;;;10.10;49.70;;;;;;5069527;28;20287;-44
2022/11/12 08:04:10;;;;;;;20.02;11.40;;;10.20;49.50;;;;;;5067998;28;20655;-44
2022/11/12 08:06:37;;;;;;;22.58;12.82;;;10.20;49.50;;;;;;5068431;28;20178;-43
2022/11/12 08:09:05;;;;;;;19.00;10.95;;;10.30;49.50;;;;;;5069676;28;20165;-42
2022/11/12 08:11:32;;;;;;;14.32;10.98;;;10.30;49.10;;;;;;5069589;28;20231;-45
2022/11/12 08:13:58;;;;;;;16.90;11.80;;;10.40;49.20;;;;;;5069554;28;20174;-45
2022/11/12 08:16:23;;;;;;;16.10;12.60;;;10.60;49.40;;;;;;5064732;28;20200;-44
2022/11/12 08:18:49;;;;;;;18.30;10.73;;;10.60;49.10;;;;;;5064249;28;20223;-45
2022/11/12 08:21:16;;;;;;;19.73;12.83;;;10.60;48.80;;;;;;5064771;28;20426;-45
2022/11/12 08:23:43;;;;;;;14.93;11.70;;;10.70;48.60;;;;;;5065305;28;20404;-45
2022/11/12 08:26:12;;;;;;;18.48;13.10;;;9.50;48.00;;;;;;5064725;28;20183;-46
2022/11/12 08:28:38;;;;;;;13.80;10.77;;;10.80;48.80;;;;;;5069132;28;20180;-45
2022/11/12 08:31:07;;;;;;;15.90;10.60;;;10.90;48.70;;;;;;5071898;28;20192;-45
2022/11/12 08:33:33;;;;;;;15.98;12.15;;;11.20;48.80;;;;;;5072523;28;20188;-44
2022/11/12 08:36:04;;;;;;;16.67;10.32;;;11.60;49.00;;;;;;5072970;28;20173;-45
2022/11/12 08:38:30;;;;;;;13.48;10.98;;;12.20;48.10;;;;;;5074537;28;20150;-45
2022/11/12 08:41:09;;;;;;;13.82;9.90;;;12.80;47.10;;;;;;5073627;28;20216;-45
2022/11/12 08:43:45;;;;;;;13.85;10.32;;;13.40;45.60;;;;;;5074818;28;20164;-46
2022/11/12 08:46:11;;;;;;;16.40;10.10;;;14.00;45.00;;;;;;5073567;28;20181;-46
2022/11/12 08:48:39;;;;;;;13.00;9.67;;;14.60;44.40;;;;;;5073936;28;20269;-46
2022/11/12 08:51:05;;;;;;;10.38;9.18;;;15.40;42.90;;;;;;5073190;28;21008;-44
2022/11/12 08:53:32;;;;;;;15.77;10.90;;;15.80;41.20;;;;;;5073742;28;20380;-47
2022/11/12 08:55:59;;;;;;;16.02;10.95;;;16.20;41.00;;;;;;5073512;28;20158;-46
2022/11/12 08:58:26;;;;;;;11.70;9.02;;;16.40;39.00;;;;;;5057601;28;20215;-44
2022/11/12 09:00:54;;;;;;;10.18;8.10;;;16.60;39.30;;;;;;5074154;28;20209;-45
2022/11/12 09:03:23;;;;;;;11.00;8.65;;;16.60;39.00;;;;;;5073464;28;20740;-43
2022/11/12 09:05:52;;;;;;;10.93;9.25;;;16.50;39.20;;;;;;5073887;28;20166;-48
2022/11/12 09:08:21;;;;;;;12.10;8.75;;;16.40;39.50;;;;;;5072872;28;20189;-44
2022/11/12 09:10:48;;;;;;;12.98;8.10;;;16.20;39.00;;;;;;5073310;28;20593;-47
2022/11/12 09:13:16;;;;;;;11.98;9.45;;;16.10;39.80;;;;;;5056081;28;20231;-48
2022/11/12 09:15:42;;;;;;;10.73;7.75;;;15.90;38.90;;;;;;5072826;28;20181;-48
2022/11/12 09:18:12;;;;;;;11.90;8.60;;;15.80;38.70;;;;;;5074437;28;20192;-48
2022/11/12 09:20:37;;;;;;;12.18;9.07;;;15.70;39.80;;;;;;5072767;28;20189;-46
2022/11/12 09:23:06;;;;;;;10.80;7.77;;;15.60;40.20;;;;;;5075411;28;20181;-46
2022/11/12 09:25:33;;;;;;;10.77;8.57;;;15.60;40.30;;;;;;5073176;28;20256;-47
2022/11/12 09:28:07;;;;;;;9.18;8.27;;;15.60;40.30;;;;;;5073883;28;20237;-46
2022/11/12 09:30:33;;;;;;;8.10;7.30;;;15.60;40.80;;;;;;5074519;28;20204;-46
2022/11/12 09:32:59;;;;;;;9.70;7.68;;;15.50;38.70;;;;;;5074094;28;20209;-47
2022/11/12 09:35:25;;;;;;;10.18;8.05;;;15.50;39.70;;;;;;5071430;28;20176;-46
2022/11/12 09:37:51;;;;;;;13.67;8.57;;;15.50;39.40;;;;;;5071645;28;20403;-46
2022/11/12 09:40:18;;;;;;;11.60;9.00;;;15.60;39.30;;;;;;5073635;28;20197;-46
2022/11/12 09:42:50;;;;;;;10.45;8.18;;;15.60;39.80;;;;;;5074427;28;20174;-44
2022/11/12 09:45:28;;;;;;;10.02;8.98;;;15.80;39.70;;;;;;5075058;28;20192;-46
2022/11/12 09:48:05;;;;;;;11.07;7.93;;;15.80;38.90;;;;;;5075740;28;20218;-45
2022/11/12 09:50:55;;;;;;;10.57;8.30;;;15.70;39.10;;;;;;5077830;28;20248;-42
2022/11/12 09:53:46;;;;;;;8.30;6.53;;;15.80;39.10;;;;;;5078241;28;20222;-43
2022/11/12 09:56:15;;;;;;;9.15;7.00;;;16.20;39.10;;;;;;5077195;28;20261;-42
2022/11/12 09:58:41;;;;;;;11.70;8.90;;;16.80;39.10;;;;;;5077510;28;20192;-44
2022/11/12 10:01:14;;;;;;;9.37;8.03;;;17.10;38.10;;;;;;5076625;28;20194;-44
2022/11/12 10:04:01;;;;;;;10.40;8.10;;;17.50;37.20;;;;;;5073394;28;20598;-45
2022/11/12 10:07:10;;;;;;;10.27;8.30;;;17.70;37.10;;;;;;5070990;28;20180;-43
2022/11/12 10:09:58;;;;;;;12.40;7.97;;;17.90;35.40;;;;;;5070599;28;20173;-43
2022/11/12 10:13:14;;;;;;;10.00;7.70;;;18.30;33.80;;;;;;5071021;28;20204;-43
2022/11/12 10:19:12;;;;;;;11.15;8.90;;;18.80;35.30;;;;;;5067927;28;20196;-45
2022/11/12 10:21:59;;;;;;;11.63;6.95;;;18.80;34.80;;;;;;5052839;28;20274;-43
2022/11/12 10:24:29;;;;;;;8.23;7.03;;;18.90;35.50;;;;;;5051927;28;20205;-45
2022/11/12 10:26:56;;;;;;;12.32;8.63;;;18.90;35.70;;;;;;5050982;28;20181;-45
2022/11/12 10:29:38;;;;;;;11.13;8.20;;;18.90;35.50;;;;;;5051683;28;20177;-43
2022/11/12 10:32:03;;;;;;;8.80;6.80;;;18.80;34.20;;;;;;5051246;28;20217;-44
2022/11/12 10:34:32;;;;;;;8.40;6.67;;;18.60;34.50;;;;;;5051533;28;20181;-44
2022/11/12 10:37:10;;;;;;;8.75;6.47;;;18.50;34.90;;;;;;5050825;28;20629;-46
2022/11/12 10:39:39;;;;;;;8.27;6.80;;;18.40;33.60;;;;;;5051528;28;20765;-43
2022/11/12 10:42:11;;;;;;;8.48;7.43;;;18.30;33.50;;;;;;5051202;28;20685;-45
2022/11/12 10:44:42;;;;;;;7.85;6.32;;;18.30;33.90;;;;;;5051643;28;20197;-45
2022/11/12 10:47:17;;;;;;;11.93;6.72;;;18.60;34.30;;;;;;5052836;28;20186;-44
2022/11/12 10:49:42;;;;;;;11.65;7.13;;;19.10;34.00;;;;;;5053904;28;20177;-46
2022/11/12 10:52:22;;;;;;;6.50;5.90;;;19.20;33.60;;;;;;5053545;28;20714;-44
2022/11/12 10:54:48;;;;;;;9.77;7.50;;;19.20;33.20;;;;;;5053484;28;20169;-42
2022/11/12 10:57:25;;;;;;;10.17;7.97;;;19.10;33.40;;;;;;5052952;28;20283;-44
2022/11/12 11:00:13;;;;;;;9.23;7.30;;;18.90;32.60;;;;;;5053355;28;20518;-44
2022/11/12 11:02:52;;;;;;;12.35;7.43;;;18.70;32.10;;;;;;5056011;28;20181;-44
2022/11/12 11:05:30;;;;;;;8.40;7.00;;;18.50;32.60;;;;;;5057832;28;20227;-45
2022/11/12 11:07:56;;;;;;;10.73;8.02;;;18.30;32.10;;;;;;5057976;28;20238;-45
2022/11/12 11:10:24;;;;;;;9.15;7.22;;;18.10;32.60;;;;;;5058479;28;20207;-46
2022/11/12 11:13:08;;;;;;;11.20;7.00;;;18.10;33.40;;;;;;5058406;28;20197;-44
2022/11/12 11:15:34;;;;;;;9.88;7.53;;;18.00;32.60;;;;;;5057539;28;20197;-45
2022/11/12 11:18:00;;;;;;;7.30;5.72;;;18.00;33.90;;;;;;5057779;28;20165;-45
2022/11/12 11:20:50;;;;;;;8.50;5.90;;;18.10;32.60;;;;;;5057576;28;20239;-45
2022/11/12 11:23:29;;;;;;;7.00;6.30;;;18.10;32.70;;;;;;5091899;22;20468;-42
2022/11/12 11:25:59;;;;;;;9.70;7.20;;;18.10;32.60;;;;;;5052335;28;20176;-42
2022/11/12 11:28:59;;;;;;;8.88;6.60;;;18.20;33.70;;;;;;5052953;28;20169;-41
2022/11/12 11:31:56;;;;;;;11.18;6.43;;;18.30;32.60;;;;;;5038886;28;20268;-42
2022/11/12 11:34:55;;;;;;;7.53;6.55;;;18.40;33.60;;;;;;5028357;28;20549;-41
2022/11/12 11:37:29;;;;;;;7.88;6.78;;;18.50;32.30;;;;;;5032337;28;20158;-42
2022/11/12 11:40:14;;;;;;;11.85;6.30;;;18.70;31.60;;;;;;5032646;28;20194;-42
2022/11/12 11:43:11;;;;;;;9.77;6.65;;;18.80;31.00;;;;;;5032594;28;20320;-41
2022/11/12 11:45:58;;;;;;;9.95;8.13;;;19.20;31.30;;;;;;5032171;28;20162;-42
2022/11/12 11:48:48;;;;;;;9.02;6.00;;;19.40;31.90;;;;;;5032753;28;20158;-42
2022/11/12 11:51:36;;;;;;;9.68;6.47;;;19.70;31.30;;;;;;5032920;28;20584;-42
2022/11/12 11:54:17;;;;;;;7.88;6.32;;;20.10;31.60;;;;;;5032472;28;20700;-42
2022/11/12 11:56:44;;;;;;;7.00;6.20;;;20.20;31.80;;;;;;5032248;28;20232;-42
2022/11/12 11:59:39;;;;;;;8.32;6.93;;;20.40;30.20;;;;;;5032529;28;20177;-41
2022/11/12 12:02:17;;;;;;;8.45;6.25;;;20.60;30.20;;;;;;5015077;28;20179;-42
2022/11/12 12:04:55;;;;;;;11.05;7.00;;;20.60;28.50;;;;;;5032439;28;20170;-42
2022/11/12 12:07:40;;;;;;;8.90;5.80;;;20.70;28.60;;;;;;5031897;28;20171;-42
2022/11/12 12:10:26;;;;;;;10.98;6.60;;;20.80;29.90;;;;;;5032319;28;20610;-42
2022/11/12 12:12:55;;;;;;;7.90;7.10;;;21.00;31.20;;;;;;5032232;28;20207;-42
2022/11/12 12:15:29;;;;;;;9.25;7.22;;;21.30;30.60;;;;;;5032397;28;20170;-42
2022/11/12 12:18:21;;;;;;;8.15;6.57;;;21.50;28.50;;;;;;5032225;28;20200;-42
2022/11/12 12:21:00;;;;;;;8.82;6.60;;;21.50;29.20;;;;;;5021498;28;20320;-42
2022/11/12 12:23:29;;;;;;;8.93;7.43;;;21.90;30.70;;;;;;5032237;28;20633;-41
2022/11/12 12:25:57;;;;;;;10.23;5.88;;;22.30;29.30;;;;;;5031735;28;20185;-42
2022/11/12 12:28:36;;;;;;;8.52;6.97;;;22.80;29.50;;;;;;5032959;28;20247;-42
2022/11/12 12:31:10;;;;;;;5.93;5.33;;;23.30;27.30;;;;;;5032727;28;20174;-42
2022/11/12 12:34:11;;;;;;;9.90;7.17;;;24.00;28.00;;;;;;5032434;28;20525;-43
2022/11/12 12:36:40;;;;;;;6.70;6.00;;;24.40;26.10;;;;;;5027750;28;20412;-42
2022/11/12 12:39:24;;;;;;;8.63;6.80;;;25.20;25.90;;;;;;5032212;28;20467;-43
2022/11/12 12:42:02;;;;;;;6.70;5.57;;;26.10;25.70;;;;;;5032172;28;20400;-43
2022/11/12 12:47:21;;;;;;;8.93;6.67;;;27.40;24.60;;;;;;5031671;28;20458;-43
2022/11/12 12:49:49;;;;;;;7.90;6.93;;;27.80;21.30;;;;;;5031878;28;20509;-43
2022/11/12 12:52:14;;;;;;;7.40;5.67;;;27.70;22.00;;;;;;5031747;28;20452;-43
2022/11/12 12:54:40;;;;;;;7.50;6.80;;;27.60;22.30;;;;;;5032700;28;20420;-43
2022/11/12 12:57:30;;;;;;;11.10;6.37;;;27.50;22.50;;;;;;5035279;28;20177;-43
2022/11/12 13:00:29;;;;;;;7.90;6.73;;;27.20;21.30;;;;;;5035968;28;20250;-43
2022/11/12 13:02:55;;;;;;;9.40;6.57;;;26.40;20.30;;;;;;5035911;28;20423;-43
2022/11/12 13:05:32;;;;;;;11.17;9.07;;;25.50;22.10;;;;;;5017865;28;20420;-43
2022/11/12 13:08:04;;;;;;;11.60;7.40;;;24.80;22.90;;;;;;5035726;28;20404;-43
2022/11/12 13:10:40;;;;;;;6.67;6.00;;;24.20;24.80;;;;;;5035544;28;20392;-43
2022/11/12 13:13:25;;;;;;;7.50;6.07;;;23.70;24.80;;;;;;5035394;28;20479;-42
2022/11/12 13:15:56;;;;;;;7.90;6.10;;;23.30;25.70;;;;;;5035071;28;20888;-43